Beatty, Nevada
Current Conditions -  °F | °C
As of 2:52 PM on Wednesday 22 Oct 2014 (Local Time) from KDRA Reporting Station
Clear Clear  
Wind Chill: 27°   Ceiling: Unl
Heat Index: 27°   Visibility: 10mi
Dew Point: -7°   Wind: 8mph
Humidity: 10%   Direction: 250°WSW
Pressure: 30.04"   Gusts: NA
Location:  36.91°N, 116.76°W
Report Text: KDRA 222152Z AUTO 25007KT 10SM CLR 27/M07 A3004 RMK AO2 SLP137 T02671072
Loading
Personal Weather Stations






























Interactive Weather Map
Tropical Storm Tracking
New forecast layout! Learn more

10-Day Weather Forecast

Advertisements
Track Severe Weather on mobile